createdAt,value
2023-04-27T00:00:13.480Z,2.57
2023-04-27T00:02:43.979Z,2.83
2023-04-27T00:05:13.398Z,2.43
2023-04-27T00:07:42.716Z,2.57
2023-04-27T00:10:12.345Z,2.33
2023-04-27T00:12:42.482Z,2.50
2023-04-27T00:15:12.551Z,1.83
2023-04-27T00:17:43.726Z,2.30
2023-04-27T00:20:13.259Z,2.50
2023-04-27T00:22:42.549Z,2.67
2023-04-27T00:25:11.846Z,3.00
2023-04-27T00:27:41.221Z,2.57
2023-04-27T00:30:12.173Z,2.90
2023-04-27T00:32:42.297Z,2.47
2023-04-27T00:35:13.318Z,2.50
2023-04-27T00:37:44.306Z,2.47
2023-04-27T00:40:13.895Z,2.57
2023-04-27T00:42:42.947Z,2.70
2023-04-27T00:45:13.491Z,3.07
2023-04-27T00:47:44.012Z,3.23
2023-04-27T00:50:15.474Z,2.73
2023-04-27T00:52:44.812Z,2.80
2023-04-27T00:55:13.866Z,2.87
2023-04-27T00:57:42.919Z,2.73
2023-04-27T01:00:13.973Z,2.23
2023-04-27T01:02:43.556Z,3.10
2023-04-27T01:05:14.085Z,3.03
2023-04-27T01:07:43.665Z,2.93
2023-04-27T01:10:12.860Z,2.87
2023-04-27T01:12:42.103Z,2.67
2023-04-27T01:15:12.662Z,2.33
2023-04-27T01:17:43.049Z,2.83
2023-04-27T01:20:14.467Z,2.70
2023-04-27T01:22:45.653Z,2.63
2023-04-27T01:25:16.146Z,2.80
2023-04-27T01:27:45.764Z,2.73
2023-04-27T01:30:15.589Z,3.50
2023-04-27T01:32:44.775Z,2.40
2023-04-27T01:35:13.819Z,2.67
2023-04-27T01:37:43.004Z,2.93
2023-04-27T01:40:13.601Z,3.27
2023-04-27T01:42:44.161Z,2.80
2023-04-27T01:45:13.636Z,1.97
2023-04-27T01:47:42.843Z,3.17
2023-04-27T01:50:12.508Z,2.90
2023-04-27T01:52:41.785Z,2.90
2023-04-27T01:55:11.154Z,3.00
2023-04-27T01:57:40.595Z,2.97
2023-04-27T02:00:12.496Z,2.77
2023-04-27T02:02:53.527Z,2.90
2023-04-27T02:05:22.865Z,2.67
2023-04-27T02:07:52.109Z,2.43
2023-04-27T02:10:22.194Z,2.97
2023-04-27T02:12:51.336Z,2.70
2023-04-27T02:15:21.970Z,3.67
2023-04-27T02:17:51.247Z,3.43
2023-04-27T02:20:20.380Z,3.03
2023-04-27T02:22:49.460Z,3.13
2023-04-27T02:25:20.110Z,3.33
2023-04-27T02:27:49.252Z,2.63
2023-04-27T02:30:18.854Z,2.87
2023-04-27T02:32:49.820Z,3.50
2023-04-27T02:35:18.952Z,2.77
2023-04-27T02:37:48.085Z,3.27
2023-04-27T02:40:17.806Z,2.63
2023-04-27T02:42:46.952Z,2.90
2023-04-27T02:45:16.014Z,2.50
2023-04-27T02:47:45.089Z,2.37
2023-04-27T02:50:17.416Z,2.80
2023-04-27T02:52:46.441Z,2.70
2023-04-27T02:55:15.544Z,2.80
2023-04-27T02:57:44.709Z,2.90
2023-04-27T03:00:14.947Z,2.87
2023-04-27T03:02:44.460Z,2.73
2023-04-27T03:05:13.897Z,3.10
2023-04-27T03:07:44.553Z,2.50
2023-04-27T03:10:13.629Z,2.87
2023-04-27T03:12:42.714Z,3.20
2023-04-27T03:15:12.351Z,3.07
2023-04-27T03:17:41.420Z,2.87
2023-04-27T03:20:12.243Z,2.63
2023-04-27T03:22:41.324Z,2.27
2023-04-27T03:25:12.165Z,2.57
2023-04-27T03:27:42.310Z,2.47
2023-04-27T03:30:12.728Z,3.07
2023-04-27T03:32:41.835Z,2.93
2023-04-27T03:35:11.230Z,2.60
2023-04-27T03:37:40.847Z,2.27
2023-04-27T03:40:12.957Z,2.63
2023-04-27T03:42:42.092Z,2.40
2023-04-27T03:45:12.414Z,3.07
2023-04-27T03:47:41.990Z,3.13
2023-04-27T03:50:11.712Z,2.87
2023-04-27T03:52:40.776Z,2.73
2023-04-27T03:55:10.701Z,2.60
2023-04-27T03:57:44.516Z,2.33
2023-04-27T04:00:17.255Z,3.43
2023-04-27T04:02:46.615Z,3.07
2023-04-27T04:05:16.091Z,3.10
2023-04-27T04:07:45.288Z,3.37
2023-04-27T04:10:14.913Z,2.77
2023-04-27T04:12:45.391Z,3.20
2023-04-27T04:15:14.568Z,2.80
2023-04-27T04:17:44.003Z,2.50
2023-04-27T04:20:13.795Z,2.50
2023-04-27T04:22:43.183Z,2.20
2023-04-27T04:25:12.884Z,2.80
2023-04-27T04:27:42.064Z,3.10
2023-04-27T04:30:13.511Z,3.07
2023-04-27T04:32:42.689Z,3.50
2023-04-27T04:35:12.157Z,3.50
2023-04-27T04:37:41.256Z,2.70
2023-04-27T04:40:11.549Z,3.60
2023-04-27T04:42:42.064Z,3.33
2023-04-27T04:45:14.022Z,3.17
2023-04-27T04:47:43.198Z,2.47
2023-04-27T04:50:14.151Z,2.83
2023-04-27T04:52:43.332Z,2.90
2023-04-27T04:55:12.497Z,3.20
2023-04-27T04:57:41.562Z,2.90
2023-04-27T05:00:13.688Z,3.30
2023-04-27T05:02:43.102Z,2.90
2023-04-27T05:05:12.332Z,3.17
2023-04-27T05:07:41.741Z,3.93
2023-04-27T05:10:11.140Z,2.77
2023-04-27T05:12:40.256Z,3.43
2023-04-27T05:15:10.128Z,3.27
2023-04-27T05:17:40.669Z,3.43
2023-04-27T05:20:10.623Z,3.00
2023-04-27T05:22:39.801Z,3.23
2023-04-27T05:25:09.955Z,3.90
2023-04-27T05:27:39.061Z,2.73
2023-04-27T05:30:09.557Z,2.90
2023-04-27T05:32:40.108Z,2.87
2023-04-27T05:35:09.822Z,2.90
2023-04-27T05:37:38.964Z,3.07
2023-04-27T05:40:10.256Z,2.80
2023-04-27T05:42:39.445Z,2.73
2023-04-27T05:45:09.838Z,3.00
2023-04-27T05:47:40.399Z,3.13
2023-04-27T05:50:10.286Z,3.07
2023-04-27T05:52:39.488Z,3.00
2023-04-27T05:55:09.412Z,3.40
2023-04-27T05:57:38.560Z,2.93
2023-04-27T06:00:10.942Z,2.50
2023-04-27T06:02:44.275Z,2.50
2023-04-27T06:05:13.533Z,2.30
2023-04-27T06:07:43.788Z,2.30
2023-04-27T06:10:12.937Z,2.40
2023-04-27T06:12:43.926Z,2.00
2023-04-27T06:15:14.223Z,1.90
2023-04-27T06:17:45.848Z,2.17
2023-04-27T06:20:15.768Z,1.50
2023-04-27T06:22:46.752Z,1.93
2023-04-27T06:25:16.050Z,1.93
2023-04-27T06:27:45.232Z,2.03
2023-04-27T06:30:14.802Z,1.53
2023-04-27T06:32:45.246Z,1.50
2023-04-27T06:35:14.570Z,1.67
2023-04-27T06:37:44.659Z,1.33
2023-04-27T06:40:14.509Z,1.80
2023-04-27T06:42:44.087Z,1.77
2023-04-27T06:45:13.753Z,1.17
2023-04-27T06:47:44.263Z,1.60
2023-04-27T06:50:13.460Z,1.38
2023-04-27T06:52:42.734Z,1.20
2023-04-27T06:55:11.984Z,1.35
2023-04-27T06:57:41.270Z,1.38
2023-04-27T07:00:13.310Z,1.58
2023-04-27T07:02:43.966Z,1.00
2023-04-27T07:05:13.246Z,1.25
2023-04-27T07:07:43.506Z,1.10
2023-04-27T07:10:12.881Z,1.23
2023-04-27T07:12:43.338Z,1.30
2023-04-27T07:15:12.847Z,1.25
2023-04-27T07:17:41.930Z,1.55
2023-04-27T07:20:14.217Z,1.30
2023-04-27T07:22:43.352Z,0.88
2023-04-27T07:25:12.414Z,0.90
2023-04-27T07:27:41.516Z,1.05
2023-04-27T07:30:13.674Z,1.25
2023-04-27T07:32:42.877Z,1.23
2023-04-27T07:35:13.461Z,1.30
2023-04-27T07:37:44.094Z,1.40
2023-04-27T07:40:16.945Z,1.10
2023-04-27T07:42:47.115Z,1.08
2023-04-27T07:45:17.401Z,1.20
2023-04-27T07:47:46.677Z,0.80
2023-04-27T07:50:22.030Z,1.15
2023-04-27T07:52:51.061Z,0.90
2023-04-27T07:55:21.475Z,1.10
2023-04-27T07:57:50.586Z,1.38
2023-04-27T08:00:20.331Z,1.88
2023-04-27T08:02:49.703Z,1.60
2023-04-27T08:05:21.288Z,2.20
2023-04-27T08:07:53.476Z,1.02
2023-04-27T08:10:23.963Z,1.10
2023-04-27T08:12:53.120Z,1.40
2023-04-27T08:15:22.274Z,1.30
2023-04-27T08:17:51.412Z,1.20
2023-04-27T08:20:22.022Z,1.10
2023-04-27T08:22:52.898Z,1.40
2023-04-27T08:25:22.165Z,1.35
2023-04-27T08:27:51.205Z,1.00
2023-04-27T08:30:21.225Z,1.92
2023-04-27T08:32:50.360Z,0.93
2023-04-27T08:35:20.978Z,1.30
2023-04-27T08:37:50.174Z,1.10
2023-04-27T08:40:19.829Z,1.67
2023-04-27T08:42:57.422Z,1.47
2023-04-27T08:45:27.645Z,1.13
2023-04-27T08:47:57.072Z,1.60
2023-04-27T08:50:27.881Z,1.70
2023-04-27T08:52:56.933Z,1.60
2023-04-27T08:55:26.394Z,1.73
2023-04-27T08:57:56.787Z,1.30
2023-04-27T09:00:27.185Z,1.20
2023-04-27T09:02:56.431Z,1.23
2023-04-27T09:05:27.613Z,1.42
2023-04-27T09:08:00.793Z,1.30
2023-04-27T09:10:30.321Z,1.13
2023-04-27T09:13:01.043Z,1.02
2023-04-27T09:15:30.445Z,1.17
2023-04-27T09:17:59.972Z,1.40
2023-04-27T09:20:30.520Z,0.82
2023-04-27T09:22:59.605Z,0.93
2023-04-27T09:25:30.050Z,0.88
2023-04-27T09:28:00.732Z,0.98
2023-04-27T09:30:30.946Z,1.20
2023-04-27T09:33:02.181Z,1.10
2023-04-27T09:35:34.126Z,1.00
2023-04-27T09:38:03.367Z,1.00
2023-04-27T09:40:33.552Z,1.05
2023-04-27T09:43:02.917Z,0.98
2023-04-27T09:45:34.292Z,1.20
2023-04-27T09:48:05.303Z,1.30
2023-04-27T09:50:38.448Z,0.98
2023-04-27T09:53:10.142Z,1.17
2023-04-27T09:55:43.544Z,0.90
2023-04-27T09:58:39.399Z,1.10
2023-04-27T10:01:18.069Z,0.90
2023-04-27T10:04:03.884Z,1.00
2023-04-27T10:07:00.252Z,1.17
2023-04-27T10:09:35.356Z,1.10
2023-04-27T10:12:16.915Z,1.40
2023-04-27T10:14:56.077Z,1.17
2023-04-27T10:17:33.579Z,1.20
2023-04-27T10:20:04.458Z,0.80
2023-04-27T10:22:42.199Z,1.02
2023-04-27T10:25:30.220Z,1.33
2023-04-27T10:28:01.108Z,1.08
2023-04-27T10:30:35.188Z,1.15
2023-04-27T10:33:07.471Z,1.10
2023-04-27T10:35:38.394Z,1.13
2023-04-27T10:38:10.145Z,0.80
2023-04-27T10:40:40.494Z,1.00
2023-04-27T10:43:11.205Z,1.00
2023-04-27T10:45:40.564Z,0.93
2023-04-27T10:48:10.035Z,1.23
2023-04-27T10:50:40.432Z,1.10
2023-04-27T10:53:10.870Z,1.10
2023-04-27T10:55:40.026Z,1.20
2023-04-27T10:58:09.113Z,1.17
2023-04-27T11:00:43.844Z,1.20
2023-04-27T11:03:15.883Z,1.05
2023-04-27T11:05:45.979Z,1.60
2023-04-27T11:08:18.617Z,1.00
2023-04-27T11:10:50.433Z,1.20
2023-04-27T11:13:21.759Z,1.60
2023-04-27T11:15:54.093Z,1.40
2023-04-27T11:18:25.565Z,1.20
2023-04-27T11:20:56.346Z,1.10
2023-04-27T11:23:28.901Z,1.30
2023-04-27T11:25:58.430Z,1.38
2023-04-27T11:28:27.465Z,1.50
2023-04-27T11:31:00.684Z,1.23
2023-04-27T11:33:30.063Z,1.30
2023-04-27T11:35:59.707Z,1.27
2023-04-27T11:38:35.930Z,1.48
2023-04-27T11:41:07.447Z,1.40
2023-04-27T11:43:38.185Z,1.17
2023-04-27T11:46:08.171Z,1.35
2023-04-27T11:48:38.666Z,1.48
2023-04-27T11:51:13.255Z,1.45
2023-04-27T11:53:51.102Z,1.50
2023-04-27T11:56:20.136Z,1.60
2023-04-27T11:58:49.192Z,1.50
2023-04-27T12:01:24.809Z,1.60
2023-04-27T12:04:04.378Z,1.45
2023-04-27T12:06:33.937Z,1.52
2023-04-27T12:09:05.229Z,1.40
2023-04-27T12:11:34.594Z,1.40
2023-04-27T12:14:04.371Z,1.30
2023-04-27T12:16:33.967Z,1.30
2023-04-27T12:19:03.134Z,1.10
2023-04-27T12:21:33.993Z,1.20
2023-04-27T12:24:04.582Z,1.38
2023-04-27T12:26:33.707Z,1.33
2023-04-27T12:29:04.193Z,1.08
2023-04-27T12:31:33.781Z,1.50
2023-04-27T12:34:03.042Z,1.48
2023-04-27T12:36:32.626Z,1.48
2023-04-27T12:39:14.758Z,1.40
2023-04-27T12:41:45.652Z,1.55
2023-04-27T12:44:15.751Z,1.40
2023-04-27T12:46:46.552Z,1.45
2023-04-27T12:49:15.956Z,1.20
2023-04-27T12:51:45.464Z,1.30
2023-04-27T12:54:16.342Z,1.55
2023-04-27T12:56:45.784Z,1.25
2023-04-27T12:59:16.746Z,1.58
2023-04-27T13:01:46.248Z,1.20
2023-04-27T13:04:21.840Z,1.38
2023-04-27T13:06:51.689Z,1.48
2023-04-27T13:09:22.257Z,2.20
2023-04-27T13:11:52.727Z,1.73
2023-04-27T13:14:22.182Z,1.88
2023-04-27T13:16:51.451Z,1.63
2023-04-27T13:19:20.548Z,1.63
2023-04-27T13:21:49.737Z,1.90
2023-04-27T13:24:19.111Z,1.60
2023-04-27T13:26:49.566Z,1.60
2023-04-27T13:29:19.006Z,1.70
2023-04-27T13:31:48.301Z,1.92
2023-04-27T13:34:17.970Z,1.60
2023-04-27T13:36:49.387Z,1.75
2023-04-27T13:39:18.753Z,1.83
2023-04-27T13:41:49.300Z,2.22
2023-04-27T13:44:18.370Z,1.65
2023-04-27T13:46:47.511Z,1.83
2023-04-27T13:49:16.597Z,2.03
2023-04-27T13:51:46.170Z,1.70
2023-04-27T13:54:15.644Z,1.97
2023-04-27T13:56:44.928Z,1.63
2023-04-27T13:59:16.526Z,1.70
2023-04-27T14:01:45.836Z,1.70
2023-04-27T14:04:15.036Z,1.77
2023-04-27T14:06:44.159Z,1.83
2023-04-27T14:09:13.440Z,1.70
2023-04-27T14:11:55.166Z,1.88
2023-04-27T14:14:27.196Z,1.83
2023-04-27T14:16:56.788Z,1.73
2023-04-27T14:19:27.329Z,1.60
2023-04-27T14:21:56.548Z,2.10
2023-04-27T14:24:25.689Z,1.77
2023-04-27T14:26:54.799Z,2.20
2023-04-27T14:29:23.851Z,2.00
2023-04-27T14:31:54.943Z,1.75
2023-04-27T14:34:24.338Z,1.77
2023-04-27T14:36:53.379Z,1.80
2023-04-27T14:39:23.142Z,1.80
2023-04-27T14:41:52.221Z,1.95
2023-04-27T14:44:21.440Z,2.35
2023-04-27T14:46:50.537Z,2.05
2023-04-27T14:49:21.657Z,2.00
2023-04-27T14:51:50.721Z,2.45
2023-04-27T14:54:19.836Z,2.00
2023-04-27T14:56:48.888Z,3.17
2023-04-27T14:59:17.978Z,2.40
2023-04-27T15:01:47.060Z,4.60
2023-04-27T15:04:16.494Z,2.58
2023-04-27T15:06:47.558Z,2.42
2023-04-27T15:09:16.639Z,2.30
2023-04-27T15:11:45.734Z,3.60
2023-04-27T15:14:14.842Z,2.30
2023-04-27T15:16:43.930Z,8.20
2023-04-27T15:19:13.230Z,5.18
2023-04-27T15:21:42.580Z,25.63
2023-04-27T15:24:13.087Z,7.00
2023-04-27T15:26:42.259Z,11.20
2023-04-27T15:29:11.467Z,3.63
2023-04-27T15:31:40.569Z,6.10
2023-04-27T15:34:09.827Z,3.17
2023-04-27T15:36:38.903Z,8.53
2023-04-27T15:39:09.996Z,3.43
2023-04-27T15:41:41.139Z,3.00
2023-04-27T15:44:10.502Z,4.57
2023-04-27T15:46:39.589Z,3.50
2023-04-27T15:49:08.690Z,4.82
2023-04-27T15:51:37.770Z,4.30
2023-04-27T15:54:06.963Z,3.40
2023-04-27T15:56:36.084Z,3.67
2023-04-27T15:59:06.794Z,2.95
2023-04-27T16:01:36.489Z,3.23
2023-04-27T16:04:06.192Z,2.83
2023-04-27T16:06:37.397Z,2.90
2023-04-27T16:09:10.411Z,2.60
2023-04-27T16:11:40.105Z,2.93
2023-04-27T16:14:10.766Z,3.17
2023-04-27T16:16:40.005Z,3.70
2023-04-27T16:19:09.852Z,2.67
2023-04-27T16:21:38.995Z,2.70
2023-04-27T16:24:08.228Z,3.30
2023-04-27T16:26:37.305Z,3.37
2023-04-27T16:29:07.074Z,4.20
2023-04-27T16:31:37.532Z,3.23
2023-04-27T16:34:07.361Z,3.40
2023-04-27T16:36:36.473Z,2.90
2023-04-27T16:39:05.918Z,3.17
2023-04-27T16:41:35.057Z,3.87
2023-04-27T16:44:04.141Z,6.07
2023-04-27T16:46:33.232Z,4.00
2023-04-27T16:49:03.769Z,5.10
2023-04-27T16:51:33.134Z,4.40
2023-04-27T16:54:02.586Z,3.90
2023-04-27T16:56:34.406Z,4.10
2023-04-27T16:59:04.897Z,3.40
2023-04-27T17:01:34.033Z,3.73
2023-04-27T17:04:04.588Z,3.80
2023-04-27T17:06:34.651Z,2.93
2023-04-27T17:09:04.017Z,3.50
2023-04-27T17:11:33.130Z,3.47
2023-04-27T17:14:02.215Z,3.63
2023-04-27T17:16:31.298Z,3.43
2023-04-27T17:19:00.562Z,2.80
2023-04-27T17:21:31.934Z,3.20
2023-04-27T17:24:01.018Z,2.80
2023-04-27T17:26:30.126Z,2.70
2023-04-27T17:29:00.050Z,2.93
2023-04-27T17:31:29.493Z,2.67
2023-04-27T17:33:58.611Z,3.10
2023-04-27T17:36:27.756Z,2.90
2023-04-27T17:38:58.331Z,3.00
2023-04-27T17:41:27.535Z,2.70
2023-04-27T17:43:56.834Z,3.00
2023-04-27T17:46:26.028Z,3.10
2023-04-27T17:48:55.182Z,3.10
2023-04-27T17:51:24.430Z,3.23
2023-04-27T17:53:53.570Z,3.57
2023-04-27T17:56:24.187Z,3.47
2023-04-27T17:58:53.291Z,3.10
2023-04-27T18:01:22.440Z,3.63
2023-04-27T18:03:52.611Z,3.10
2023-04-27T18:06:21.918Z,2.67
2023-04-27T18:08:51.289Z,3.00
2023-04-27T18:11:20.938Z,3.23
2023-04-27T18:13:51.357Z,3.47
2023-04-27T18:16:20.552Z,3.40
2023-04-27T18:18:49.694Z,3.50
2023-04-27T18:21:18.914Z,3.80
2023-04-27T18:23:48.056Z,3.60
2023-04-27T18:26:17.287Z,3.67
2023-04-27T18:28:46.531Z,3.90
2023-04-27T18:31:17.978Z,3.60
2023-04-27T18:33:47.941Z,3.77
2023-04-27T18:36:17.057Z,3.23
2023-04-27T18:38:48.051Z,3.80
2023-04-27T18:41:17.267Z,3.90
2023-04-27T18:43:46.464Z,4.53
2023-04-27T18:46:17.093Z,3.70
2023-04-27T18:48:46.302Z,3.87
2023-04-27T18:51:15.518Z,3.73
2023-04-27T18:53:44.668Z,4.60
2023-04-27T18:56:14.603Z,3.47
2023-04-27T18:58:43.792Z,3.90
2023-04-27T19:01:21.419Z,3.33
2023-04-27T19:03:50.897Z,4.17
2023-04-27T19:06:21.406Z,4.13
2023-04-27T19:08:51.054Z,4.80
2023-04-27T19:11:22.274Z,4.83
2023-04-27T19:13:51.984Z,4.77
2023-04-27T19:16:24.545Z,4.93
2023-04-27T19:18:53.717Z,6.90
2023-04-27T19:21:22.893Z,10.13
2023-04-27T19:23:52.037Z,13.83
2023-04-27T19:26:21.334Z,11.57
2023-04-27T19:28:50.424Z,11.17
2023-04-27T19:31:20.915Z,10.73
2023-04-27T19:33:55.168Z,8.27
2023-04-27T19:36:26.039Z,7.80
2023-04-27T19:38:55.255Z,10.37
2023-04-27T19:41:25.116Z,8.43
2023-04-27T19:43:54.290Z,8.20
2023-04-27T19:46:26.303Z,8.87
2023-04-27T19:48:55.542Z,8.03
2023-04-27T19:51:24.992Z,7.30
2023-04-27T19:53:54.093Z,6.60
2023-04-27T19:56:23.241Z,7.03
2023-04-27T19:58:52.292Z,7.50
2023-04-27T20:01:21.955Z,6.70
2023-04-27T20:03:53.443Z,6.40
2023-04-27T20:06:22.986Z,6.27
2023-04-27T20:08:52.071Z,6.30
2023-04-27T20:11:21.303Z,6.17
2023-04-27T20:13:50.455Z,6.10
2023-04-27T20:16:19.853Z,5.77
2023-04-27T20:18:49.650Z,6.00
2023-04-27T20:21:21.446Z,6.47
2023-04-27T20:23:51.094Z,6.67
2023-04-27T20:26:20.270Z,5.93
2023-04-27T20:28:49.619Z,6.00
2023-04-27T20:31:18.738Z,6.93
2023-04-27T20:33:47.931Z,6.63
2023-04-27T20:36:18.423Z,6.93
2023-04-27T20:38:48.948Z,7.17
2023-04-27T20:41:18.251Z,6.93
2023-04-27T20:43:47.410Z,7.20
2023-04-27T20:46:16.702Z,7.07
2023-04-27T20:48:47.204Z,6.80
2023-04-27T20:51:16.316Z,7.00
2023-04-27T20:53:45.726Z,7.23
2023-04-27T20:56:16.821Z,7.27
2023-04-27T20:58:45.952Z,6.77
2023-04-27T21:01:15.116Z,7.53
2023-04-27T21:03:44.477Z,6.77
2023-04-27T21:06:13.744Z,6.97
2023-04-27T21:08:42.897Z,6.83
2023-04-27T21:11:12.393Z,7.63
2023-04-27T21:13:42.945Z,7.17
2023-04-27T21:16:12.166Z,6.83
2023-04-27T21:18:41.255Z,7.17
2023-04-27T21:21:10.631Z,6.40
2023-04-27T21:23:39.779Z,7.57
2023-04-27T21:26:09.397Z,7.77
2023-04-27T21:28:38.466Z,7.30
2023-04-27T21:31:09.046Z,6.40
2023-04-27T21:33:38.650Z,7.77
2023-04-27T21:36:08.239Z,6.80
2023-04-27T21:38:37.306Z,7.00
2023-04-27T21:41:06.435Z,7.57
2023-04-27T21:43:35.717Z,8.00
2023-04-27T21:46:04.774Z,7.10
2023-04-27T21:48:35.411Z,7.40
2023-04-27T21:51:04.665Z,8.00
2023-04-27T21:53:33.794Z,8.13
2023-04-27T21:56:02.970Z,7.93
2023-04-27T21:58:32.040Z,8.23
2023-04-27T22:01:01.364Z,7.80
2023-04-27T22:03:30.837Z,7.60
2023-04-27T22:06:01.438Z,8.10
2023-04-27T22:08:31.012Z,8.73
2023-04-27T22:11:00.167Z,7.90
2023-04-27T22:13:29.454Z,7.97
2023-04-27T22:15:58.520Z,8.43
2023-04-27T22:18:27.718Z,8.87
2023-04-27T22:20:58.190Z,9.83
2023-04-27T22:23:31.646Z,8.80
2023-04-27T22:26:00.995Z,8.20
2023-04-27T22:28:30.768Z,9.20
2023-04-27T22:31:01.111Z,9.07
2023-04-27T22:33:30.179Z,9.13
2023-04-27T22:35:59.640Z,9.90
2023-04-27T22:38:30.322Z,10.47
2023-04-27T22:40:59.423Z,9.33
2023-04-27T22:43:28.557Z,9.00
2023-04-27T22:45:57.610Z,8.10
2023-04-27T22:48:27.152Z,8.03
2023-04-27T22:50:56.224Z,8.33
2023-04-27T22:53:25.341Z,7.73
2023-04-27T22:55:55.817Z,6.90
2023-04-27T22:58:24.891Z,6.87
2023-04-27T23:00:54.046Z,6.90
2023-04-27T23:03:23.645Z,7.60
2023-04-27T23:05:53.540Z,7.37
2023-04-27T23:08:24.813Z,6.90
2023-04-27T23:10:56.217Z,7.23
2023-04-27T23:13:26.735Z,7.00
2023-04-27T23:15:55.849Z,6.70
2023-04-27T23:18:24.973Z,7.40
2023-04-27T23:20:55.585Z,6.67
2023-04-27T23:23:24.750Z,7.23
2023-04-27T23:25:55.167Z,6.80
2023-04-27T23:28:24.211Z,6.57
2023-04-27T23:30:56.663Z,8.00
2023-04-27T23:33:25.756Z,7.30
2023-04-27T23:35:56.136Z,7.30
2023-04-27T23:38:25.393Z,7.03
2023-04-27T23:40:55.792Z,6.87
2023-04-27T23:43:24.878Z,5.80
2023-04-27T23:45:54.142Z,6.30
2023-04-27T23:48:23.267Z,5.67
2023-04-27T23:51:00.900Z,5.93
2023-04-27T23:53:30.337Z,5.80
2023-04-27T23:56:01.005Z,5.27
2023-04-27T23:58:30.235Z,5.63
